Time;durP1;ratioP1;P1;durP2;ratioP2;P2;SDS_P1;SDS_P2;PMS_P1;PMS_P2;Temp;Humidity;BMP_temperature;BMP_pressure;BME280_temperature;BME280_humidity;BME280_pressure;Samples;Min_cycle;Max_cycle;Signal;HPM_P1;HPM_P2
2023/07/03 00:00:42;;;;;;;11.90;4.00;;;;;;;;;;5052179;28;20416;-50
2023/07/03 00:03:08;;;;;;;12.47;4.03;;;;;;;;;;5052429;28;20444;-49
2023/07/03 00:05:35;;;;;;;8.20;3.70;;;;;;;;;;5052265;28;20923;-49
2023/07/03 00:08:06;;;;;;;11.97;4.53;;;;;;;;;;5052297;28;20436;-50
2023/07/03 00:10:32;;;;;;;16.63;3.70;;;;;;;;;;5051955;28;20802;-52
2023/07/03 00:12:58;;;;;;;12.27;3.67;;;;;;;;;;5052441;28;20410;-50
2023/07/03 00:15:24;;;;;;;10.83;3.83;;;;;;;;;;5050804;28;20442;-50
2023/07/03 00:17:50;;;;;;;10.63;4.07;;;;;;;;;;5051918;28;20436;-51
2023/07/03 00:20:16;;;;;;;11.00;4.30;;;;;;;;;;5051875;28;20400;-50
2023/07/03 00:22:42;;;;;;;15.63;3.60;;;;;;;;;;5052187;28;20916;-50
2023/07/03 00:25:08;;;;;;;15.83;4.00;;;;;;;;;;5052120;28;20960;-52
2023/07/03 00:27:34;;;;;;;11.00;3.53;;;;;;;;;;5051883;28;20528;-51
2023/07/03 00:30:00;;;;;;;7.30;3.47;;;;;;;;;;5052009;28;20509;-51
2023/07/03 00:32:28;;;;;;;10.43;4.07;;;;;;;;;;5051724;28;20468;-50
2023/07/03 00:34:54;;;;;;;14.10;4.00;;;;;;;;;;5051851;28;20487;-52
2023/07/03 00:37:21;;;;;;;7.00;3.37;;;;;;;;;;5050820;28;20428;-51
2023/07/03 00:39:47;;;;;;;8.13;3.33;;;;;;;;;;5051731;28;20398;-48
2023/07/03 00:42:13;;;;;;;12.93;3.60;;;;;;;;;;5051711;28;20407;-51
2023/07/03 00:44:39;;;;;;;9.60;3.83;;;;;;;;;;5051636;28;20415;-50
2023/07/03 00:47:06;;;;;;;7.90;3.53;;;;;;;;;;5051683;28;20486;-49
2023/07/03 00:49:32;;;;;;;9.27;4.10;;;;;;;;;;5051624;28;20895;-50
2023/07/03 00:51:59;;;;;;;13.03;3.80;;;;;;;;;;5051481;28;20452;-48
2023/07/03 00:54:25;;;;;;;15.07;3.90;;;;;;;;;;5052040;28;20502;-49
2023/07/03 00:56:51;;;;;;;9.63;3.90;;;;;;;;;;5051413;28;20696;-51
2023/07/03 00:59:18;;;;;;;4.50;3.20;;;;;;;;;;5051582;28;20417;-51
2023/07/03 01:01:49;;;;;;;11.90;3.60;;;;;;;;;;5050670;28;20891;-50
2023/07/03 01:04:22;;;;;;;6.93;3.40;;;;;;;;;;5051139;28;20419;-50
2023/07/03 01:06:56;;;;;;;6.43;3.80;;;;;;;;;;5051265;28;20452;-50
2023/07/03 01:09:24;;;;;;;14.13;4.20;;;;;;;;;;5051422;28;20534;-49
2023/07/03 01:11:50;;;;;;;8.80;3.90;;;;;;;;;;5051084;28;20461;-50
2023/07/03 01:14:18;;;;;;;15.13;4.13;;;;;;;;;;5051465;28;20414;-50
2023/07/03 01:16:45;;;;;;;15.97;4.10;;;;;;;;;;5051426;28;20484;-51
2023/07/03 01:19:13;;;;;;;12.00;3.77;;;;;;;;;;5051620;28;20376;-50
2023/07/03 01:21:53;;;;;;;7.73;3.70;;;;;;;;;;5050974;28;20409;-50
2023/07/03 01:24:29;;;;;;;10.43;3.97;;;;;;;;;;5051342;28;20407;-50
2023/07/03 01:26:56;;;;;;;7.03;3.43;;;;;;;;;;5051376;28;20434;-51
2023/07/03 01:29:22;;;;;;;8.73;3.53;;;;;;;;;;5051182;28;20911;-49
2023/07/03 01:31:49;;;;;;;13.67;4.40;;;;;;;;;;5051048;28;20449;-50
2023/07/03 01:34:15;;;;;;;10.53;3.77;;;;;;;;;;5051029;28;20419;-50
2023/07/03 01:36:42;;;;;;;12.60;3.70;;;;;;;;;;5051162;28;20482;-51
2023/07/03 01:39:08;;;;;;;14.60;3.60;;;;;;;;;;5051276;28;20888;-51
2023/07/03 01:41:34;;;;;;;6.27;3.40;;;;;;;;;;5050946;28;20383;-51
2023/07/03 01:44:01;;;;;;;8.47;4.00;;;;;;;;;;5051142;28;20919;-51
2023/07/03 01:46:27;;;;;;;13.20;4.03;;;;;;;;;;5051048;28;20491;-49
2023/07/03 01:48:53;;;;;;;14.93;4.13;;;;;;;;;;5052796;28;20920;-50
2023/07/03 01:51:26;;;;;;;7.57;3.80;;;;;;;;;;5054646;28;20506;-52
2023/07/03 01:54:01;;;;;;;18.10;4.10;;;;;;;;;;5054923;28;20409;-50
2023/07/03 01:56:31;;;;;;;12.83;3.70;;;;;;;;;;5054895;28;20405;-51
2023/07/03 01:59:07;;;;;;;14.23;4.00;;;;;;;;;;5054851;28;20409;-50
2023/07/03 02:01:41;;;;;;;14.27;4.10;;;;;;;;;;5054552;28;20498;-51
2023/07/03 02:04:18;;;;;;;16.50;3.80;;;;;;;;;;5052397;28;20437;-51
2023/07/03 02:06:45;;;;;;;13.73;3.77;;;;;;;;;;5047259;28;20453;-51
2023/07/03 02:09:12;;;;;;;14.37;3.80;;;;;;;;;;5036740;28;20427;-49
2023/07/03 02:11:38;;;;;;;14.30;3.87;;;;;;;;;;5050588;28;20986;-51
2023/07/03 02:14:05;;;;;;;10.00;3.93;;;;;;;;;;5054809;28;20491;-51
2023/07/03 02:16:31;;;;;;;13.40;3.57;;;;;;;;;;5054430;28;20950;-51
2023/07/03 02:18:58;;;;;;;11.90;4.43;;;;;;;;;;5054508;28;20405;-51
2023/07/03 02:21:25;;;;;;;8.10;4.03;;;;;;;;;;5054198;28;20418;-50
2023/07/03 02:23:50;;;;;;;16.87;4.37;;;;;;;;;;5054445;28;20418;-52
2023/07/03 02:26:16;;;;;;;8.30;3.93;;;;;;;;;;5054257;28;20409;-50
2023/07/03 02:28:43;;;;;;;9.30;3.70;;;;;;;;;;5054321;28;20413;-50
2023/07/03 02:31:08;;;;;;;14.87;4.57;;;;;;;;;;5053875;28;20508;-50
2023/07/03 02:33:34;;;;;;;10.33;3.40;;;;;;;;;;5054065;28;20437;-50
2023/07/03 02:36:04;;;;;;;6.53;3.47;;;;;;;;;;5054092;28;20405;-51
2023/07/03 02:38:30;;;;;;;11.40;4.30;;;;;;;;;;5053963;28;20441;-50
2023/07/03 02:40:57;;;;;;;18.73;5.10;;;;;;;;;;5053640;28;20470;-52
2023/07/03 02:43:23;;;;;;;10.80;5.07;;;;;;;;;;5053820;28;20401;-52
2023/07/03 02:45:49;;;;;;;16.70;4.27;;;;;;;;;;5054018;28;20408;-50
2023/07/03 02:48:15;;;;;;;15.37;4.33;;;;;;;;;;5053806;28;20436;-51
2023/07/03 02:50:41;;;;;;;12.53;3.80;;;;;;;;;;5053459;28;20418;-50
2023/07/03 02:53:07;;;;;;;9.33;3.80;;;;;;;;;;5054301;28;20879;-51
2023/07/03 02:55:33;;;;;;;9.77;3.30;;;;;;;;;;5053667;28;20401;-52
2023/07/03 02:57:59;;;;;;;13.03;4.57;;;;;;;;;;5058323;28;20443;-51
2023/07/03 03:00:27;;;;;;;14.37;4.50;;;;;;;;;;5052519;28;20410;-50
2023/07/03 03:02:53;;;;;;;17.30;4.07;;;;;;;;;;5053813;28;20428;-48
2023/07/03 03:05:20;;;;;;;14.60;4.00;;;;;;;;;;5053564;28;20445;-50
2023/07/03 03:07:46;;;;;;;12.13;3.90;;;;;;;;;;5053352;28;20459;-51
2023/07/03 03:10:12;;;;;;;14.30;3.90;;;;;;;;;;5053230;28;20792;-50
2023/07/03 03:12:38;;;;;;;16.73;4.37;;;;;;;;;;5045294;28;20461;-51
2023/07/03 03:15:06;;;;;;;19.20;4.97;;;;;;;;;;5053605;28;20437;-50
2023/07/03 03:17:32;;;;;;;10.17;3.77;;;;;;;;;;5053204;28;20467;-49
2023/07/03 03:19:58;;;;;;;14.80;4.77;;;;;;;;;;5053239;28;20405;-52
2023/07/03 03:22:23;;;;;;;17.90;4.90;;;;;;;;;;5053276;28;20930;-50
2023/07/03 03:24:49;;;;;;;11.37;4.50;;;;;;;;;;5053090;28;20411;-52
2023/07/03 03:27:15;;;;;;;12.17;5.30;;;;;;;;;;5053391;28;20439;-50
2023/07/03 03:29:41;;;;;;;12.23;4.10;;;;;;;;;;5052924;28;20983;-50
2023/07/03 03:32:08;;;;;;;12.13;4.57;;;;;;;;;;5053006;28;20489;-50
2023/07/03 03:34:34;;;;;;;15.60;4.50;;;;;;;;;;5053010;28;20448;-50
2023/07/03 03:37:00;;;;;;;12.20;4.00;;;;;;;;;;5052885;28;20461;-50
2023/07/03 03:39:26;;;;;;;16.70;4.93;;;;;;;;;;5052840;28;21049;-50
2023/07/03 03:41:52;;;;;;;20.47;4.10;;;;;;;;;;5052714;28;20508;-51
2023/07/03 03:44:18;;;;;;;14.90;4.23;;;;;;;;;;5052755;28;20457;-50
2023/07/03 03:46:46;;;;;;;17.13;4.90;;;;;;;;;;5052798;28;20927;-51
2023/07/03 03:49:12;;;;;;;10.63;4.50;;;;;;;;;;5052791;28;20502;-52
2023/07/03 03:51:38;;;;;;;16.17;4.70;;;;;;;;;;5052293;28;20715;-51
2023/07/03 03:54:04;;;;;;;9.53;3.87;;;;;;;;;;5052505;28;20766;-51
2023/07/03 03:56:30;;;;;;;13.13;3.90;;;;;;;;;;5052448;28;20475;-49
2023/07/03 03:58:56;;;;;;;19.37;4.30;;;;;;;;;;5052465;28;20480;-50
2023/07/03 04:01:22;;;;;;;17.87;5.67;;;;;;;;;;5052252;28;20401;-50
2023/07/03 04:03:48;;;;;;;13.20;3.90;;;;;;;;;;5051524;28;20445;-51
2023/07/03 04:06:18;;;;;;;15.67;4.60;;;;;;;;;;5051064;28;20475;-51
2023/07/03 04:08:44;;;;;;;13.70;4.67;;;;;;;;;;5052372;28;20417;-51
2023/07/03 04:11:10;;;;;;;13.03;4.40;;;;;;;;;;5051649;28;20453;-50
2023/07/03 04:13:36;;;;;;;14.20;4.70;;;;;;;;;;5052270;28;20420;-52
2023/07/03 04:16:03;;;;;;;18.33;5.10;;;;;;;;;;5052352;28;20417;-50
2023/07/03 04:18:30;;;;;;;11.07;4.40;;;;;;;;;;5052164;28;20422;-51
2023/07/03 04:20:56;;;;;;;17.63;4.30;;;;;;;;;;5046157;28;20409;-50
2023/07/03 04:23:23;;;;;;;10.27;3.67;;;;;;;;;;5052107;28;20927;-51
2023/07/03 04:25:49;;;;;;;14.93;4.10;;;;;;;;;;5052074;28;20509;-50
2023/07/03 04:28:16;;;;;;;15.23;4.27;;;;;;;;;;5051918;28;20842;-48
2023/07/03 04:30:43;;;;;;;22.73;5.50;;;;;;;;;;5051638;28;20412;-51
2023/07/03 04:33:09;;;;;;;10.33;3.60;;;;;;;;;;5051959;28;20414;-51
2023/07/03 04:35:36;;;;;;;19.10;5.80;;;;;;;;;;5051643;28;20459;-50
2023/07/03 04:38:02;;;;;;;7.87;3.80;;;;;;;;;;5052023;28;20934;-51
2023/07/03 04:40:28;;;;;;;13.40;4.23;;;;;;;;;;5051498;28;20410;-50
2023/07/03 04:42:54;;;;;;;14.83;4.63;;;;;;;;;;5051814;28;20428;-50
2023/07/03 04:45:21;;;;;;;11.90;4.00;;;;;;;;;;5051634;28;20770;-50
2023/07/03 04:47:47;;;;;;;10.70;4.20;;;;;;;;;;5051626;28;20428;-50
2023/07/03 04:50:17;;;;;;;20.83;5.70;;;;;;;;;;5051253;28;20440;-50
2023/07/03 04:52:45;;;;;;;19.43;4.30;;;;;;;;;;5051634;28;20869;-51
2023/07/03 04:55:12;;;;;;;9.93;4.27;;;;;;;;;;5051483;28;20500;-51
2023/07/03 04:57:38;;;;;;;13.60;4.60;;;;;;;;;;5043345;28;20794;-50
2023/07/03 05:00:14;;;;;;;21.70;5.47;;;;;;;;;;5051396;28;20907;-52
2023/07/03 05:02:44;;;;;;;14.17;5.17;;;;;;;;;;5051521;28;20451;-51
2023/07/03 05:05:11;;;;;;;11.87;4.80;;;;;;;;;;5051772;28;20452;-50
2023/07/03 05:07:37;;;;;;;14.30;5.30;;;;;;;;;;5051333;28;20498;-52
2023/07/03 05:10:03;;;;;;;16.27;4.47;;;;;;;;;;5045317;28;20429;-51
2023/07/03 05:12:29;;;;;;;18.50;5.10;;;;;;;;;;5051716;28;20998;-51
2023/07/03 05:14:56;;;;;;;11.30;4.63;;;;;;;;;;5051205;28;20430;-50
2023/07/03 05:17:23;;;;;;;7.33;3.90;;;;;;;;;;5051265;28;20455;-50
2023/07/03 05:19:49;;;;;;;12.07;4.70;;;;;;;;;;5051518;28;20436;-49
2023/07/03 05:22:15;;;;;;;19.23;4.60;;;;;;;;;;5051446;28;20446;-50
2023/07/03 05:24:40;;;;;;;20.70;5.00;;;;;;;;;;5054625;28;20441;-51
2023/07/03 05:27:07;;;;;;;16.43;4.40;;;;;;;;;;5061533;28;20427;-52
2023/07/03 05:29:33;;;;;;;14.63;5.30;;;;;;;;;;5055880;28;21009;-48
2023/07/03 05:32:00;;;;;;;21.80;5.37;;;;;;;;;;5055327;28;20539;-51
2023/07/03 05:34:26;;;;;;;16.17;5.87;;;;;;;;;;5055313;28;20421;-52
2023/07/03 05:36:52;;;;;;;16.77;4.43;;;;;;;;;;5055544;28;20436;-49
2023/07/03 05:39:18;;;;;;;13.20;4.37;;;;;;;;;;5055181;28;20464;-49
2023/07/03 05:41:44;;;;;;;16.97;4.63;;;;;;;;;;5055097;28;20833;-51
2023/07/03 05:44:10;;;;;;;15.53;5.17;;;;;;;;;;5055080;28;20402;-51
2023/07/03 05:46:36;;;;;;;26.30;4.97;;;;;;;;;;5055021;28;20426;-51
2023/07/03 05:49:02;;;;;;;20.80;5.17;;;;;;;;;;5055304;28;20427;-51
2023/07/03 05:51:28;;;;;;;12.90;4.77;;;;;;;;;;5054700;28;20468;-50
2023/07/03 05:53:54;;;;;;;17.67;5.00;;;;;;;;;;5054934;28;20406;-50
2023/07/03 05:56:20;;;;;;;15.67;5.17;;;;;;;;;;5054922;28;20409;-50
2023/07/03 05:58:46;;;;;;;27.00;4.87;;;;;;;;;;5054344;28;20765;-50
2023/07/03 06:01:12;;;;;;;14.43;5.00;;;;;;;;;;5054171;28;20409;-50
2023/07/03 06:03:43;;;;;;;13.43;4.80;;;;;;;;;;5054226;28;20441;-50
2023/07/03 06:06:09;;;;;;;14.00;4.33;;;;;;;;;;5057500;28;20940;-50
2023/07/03 06:08:35;;;;;;;16.03;4.80;;;;;;;;;;5054489;28;20483;-50
2023/07/03 06:11:02;;;;;;;12.83;4.40;;;;;;;;;;5053840;28;20557;-51
2023/07/03 06:13:28;;;;;;;13.93;4.30;;;;;;;;;;5039214;28;20406;-50
2023/07/03 06:15:54;;;;;;;11.73;4.93;;;;;;;;;;5053991;28;20394;-49
2023/07/03 06:18:20;;;;;;;24.00;5.70;;;;;;;;;;5053760;28;20430;-49
2023/07/03 06:20:47;;;;;;;16.97;5.47;;;;;;;;;;5053896;28;20906;-50
2023/07/03 06:23:14;;;;;;;18.30;5.23;;;;;;;;;;5054092;28;20481;-48
2023/07/03 06:25:40;;;;;;;10.30;4.77;;;;;;;;;;5053816;28;20442;-48
2023/07/03 06:28:06;;;;;;;21.90;4.27;;;;;;;;;;5053591;28;20437;-48
2023/07/03 06:30:35;;;;;;;15.10;4.63;;;;;;;;;;5053357;28;20848;-49
2023/07/03 06:33:01;;;;;;;16.47;4.60;;;;;;;;;;5053688;28;20449;-50
2023/07/03 06:35:27;;;;;;;21.70;6.43;;;;;;;;;;5053173;28;20389;-49
2023/07/03 06:37:55;;;;;;;13.90;4.87;;;;;;;;;;5053345;28;20470;-50
2023/07/03 06:40:21;;;;;;;25.43;5.80;;;;;;;;;;5053515;28;20384;-49
2023/07/03 06:42:47;;;;;;;12.43;4.70;;;;;;;;;;5053884;28;20516;-49
2023/07/03 06:45:13;;;;;;;15.40;5.60;;;;;;;;;;5053898;28;20390;-48
2023/07/03 06:47:39;;;;;;;13.00;4.53;;;;;;;;;;5053952;28;20795;-50
2023/07/03 06:50:06;;;;;;;18.17;5.00;;;;;;;;;;5053705;28;20394;-49
2023/07/03 06:52:34;;;;;;;14.37;5.23;;;;;;;;;;5053869;28;20464;-49
2023/07/03 06:55:00;;;;;;;17.17;4.80;;;;;;;;;;5053570;28;20392;-49
2023/07/03 06:57:26;;;;;;;17.17;5.40;;;;;;;;;;5053528;28;20432;-50
2023/07/03 06:59:51;;;;;;;13.10;4.33;;;;;;;;;;5053412;28;20407;-51
2023/07/03 07:02:17;;;;;;;24.40;5.80;;;;;;;;;;5053802;28;20464;-49
2023/07/03 07:04:45;;;;;;;17.57;5.67;;;;;;;;;;5054848;28;20422;-49
2023/07/03 07:07:11;;;;;;;16.73;5.40;;;;;;;;;;5053319;28;20462;-46
2023/07/03 07:09:37;;;;;;;13.00;4.63;;;;;;;;;;5053147;28;20380;-46
2023/07/03 07:12:03;;;;;;;11.77;4.87;;;;;;;;;;5052605;28;20604;-48
2023/07/03 07:14:29;;;;;;;23.80;5.43;;;;;;;;;;5052958;28;20390;-47
2023/07/03 07:16:55;;;;;;;17.43;4.97;;;;;;;;;;5053185;28;20407;-48
2023/07/03 07:19:22;;;;;;;15.90;5.03;;;;;;;;;;5053068;28;20790;-50
2023/07/03 07:21:49;;;;;;;13.70;4.10;;;;;;;;;;5046907;28;20415;-46
2023/07/03 07:24:20;;;;;;;17.17;5.33;;;;;;;;;;5053483;28;20903;-48
2023/07/03 07:26:46;;;;;;;16.47;4.70;;;;;;;;;;5053038;28;20443;-48
2023/07/03 07:29:12;;;;;;;17.97;5.30;;;;;;;;;;5053192;28;20413;-49
2023/07/03 07:31:38;;;;;;;15.50;4.40;;;;;;;;;;5060621;28;20460;-50
2023/07/03 07:34:05;;;;;;;17.53;5.17;;;;;;;;;;5052837;28;20412;-49
2023/07/03 07:36:31;;;;;;;8.23;4.47;;;;;;;;;;5052772;28;20420;-49
2023/07/03 07:38:59;;;;;;;9.40;4.30;;;;;;;;;;5057481;28;21297;-49
2023/07/03 07:41:25;;;;;;;20.23;5.10;;;;;;;;;;5054189;28;20403;-48
2023/07/03 07:43:51;;;;;;;12.17;5.00;;;;;;;;;;5052621;28;21020;-49
2023/07/03 07:46:17;;;;;;;16.63;5.43;;;;;;;;;;5052175;28;20428;-49
2023/07/03 07:48:45;;;;;;;17.30;5.40;;;;;;;;;;5052709;28;20412;-49
2023/07/03 07:51:11;;;;;;;15.93;5.27;;;;;;;;;;5052247;28;20488;-48
2023/07/03 07:53:38;;;;;;;18.63;5.60;;;;;;;;;;5052611;28;20380;-50
2023/07/03 07:56:04;;;;;;;13.07;5.10;;;;;;;;;;5052621;28;20405;-52
2023/07/03 07:58:30;;;;;;;13.00;5.50;;;;;;;;;;5052546;28;20418;-51
2023/07/03 08:00:57;;;;;;;19.87;6.40;;;;;;;;;;5052571;28;20413;-50
2023/07/03 08:03:23;;;;;;;13.33;4.90;;;;;;;;;;5051397;28;20410;-50
2023/07/03 08:05:49;;;;;;;10.37;4.40;;;;;;;;;;5050314;28;20414;-52
2023/07/03 08:08:15;;;;;;;13.60;5.63;;;;;;;;;;5051327;28;20446;-51
2023/07/03 08:10:41;;;;;;;15.77;4.77;;;;;;;;;;5050600;28;20765;-50
2023/07/03 08:13:08;;;;;;;17.53;5.10;;;;;;;;;;5051188;28;20493;-52
2023/07/03 08:15:34;;;;;;;17.77;5.20;;;;;;;;;;5052331;28;20411;-50
2023/07/03 08:18:00;;;;;;;17.00;4.97;;;;;;;;;;5052119;28;20442;-50
2023/07/03 08:20:26;;;;;;;15.67;5.00;;;;;;;;;;5051825;28;20476;-50
2023/07/03 08:22:51;;;;;;;11.93;4.60;;;;;;;;;;5052179;28;20400;-51
2023/07/03 08:25:17;;;;;;;16.17;5.00;;;;;;;;;;5052006;28;20422;-49
2023/07/03 08:27:47;;;;;;;11.77;4.20;;;;;;;;;;5051794;28;20863;-46
2023/07/03 08:30:14;;;;;;;14.13;4.20;;;;;;;;;;5031890;28;20922;-46
2023/07/03 08:32:40;;;;;;;9.37;4.00;;;;;;;;;;5048431;28;20443;-45
2023/07/03 08:35:07;;;;;;;15.57;4.23;;;;;;;;;;5051682;28;20391;-49
2023/07/03 08:37:33;;;;;;;11.27;4.87;;;;;;;;;;5051834;28;20441;-47
2023/07/03 08:39:59;;;;;;;13.80;4.33;;;;;;;;;;5051731;28;20413;-45
2023/07/03 08:42:46;;;;;;;13.10;4.83;;;;;;;;;;5051858;28;20388;-47
2023/07/03 08:45:13;;;;;;;13.33;4.50;;;;;;;;;;5051856;28;20397;-45
2023/07/03 08:47:40;;;;;;;10.20;4.63;;;;;;;;;;5051660;28;20400;-47
2023/07/03 08:50:07;;;;;;;9.43;4.83;;;;;;;;;;5051521;28;20390;-45
2023/07/03 08:52:45;;;;;;;9.13;5.80;;;;;;;;;;5051693;28;20468;-45
2023/07/03 08:55:13;;;;;;;12.83;4.40;;;;;;;;;;5051596;28;20402;-45
2023/07/03 08:57:40;;;;;;;9.33;4.20;;;;;;;;;;5050852;28;20460;-45
2023/07/03 09:00:10;;;;;;;14.30;4.70;;;;;;;;;;5051089;28;20452;-46
2023/07/03 09:02:45;;;;;;;11.30;4.30;;;;;;;;;;5051721;28;20421;-51
2023/07/03 09:05:29;;;;;;;7.87;3.93;;;;;;;;;;5051571;28;20384;-48
2023/07/03 09:08:00;;;;;;;14.00;4.50;;;;;;;;;;5051767;28;20489;-47
2023/07/03 09:10:33;;;;;;;11.60;4.80;;;;;;;;;;5051230;28;20422;-45
2023/07/03 09:13:18;;;;;;;17.90;4.67;;;;;;;;;;5051545;28;20442;-45
2023/07/03 09:15:46;;;;;;;20.30;5.00;;;;;;;;;;5051414;28;20388;-48
2023/07/03 09:18:17;;;;;;;12.60;4.80;;;;;;;;;;5051611;28;20420;-52
2023/07/03 09:20:43;;;;;;;12.27;4.30;;;;;;;;;;5031274;28;20402;-45
2023/07/03 09:23:20;;;;;;;13.47;4.30;;;;;;;;;;5048940;28;20412;-45
2023/07/03 09:25:56;;;;;;;12.73;4.73;;;;;;;;;;5052223;28;20383;-47
2023/07/03 09:28:22;;;;;;;13.73;6.00;;;;;;;;;;5051057;28;20417;-45
2023/07/03 09:30:48;;;;;;;8.57;4.37;;;;;;;;;;5050926;28;20418;-45
2023/07/03 09:33:14;;;;;;;14.40;6.10;;;;;;;;;;5051003;28;20392;-46
2023/07/03 09:35:41;;;;;;;11.47;4.27;;;;;;;;;;5050961;28;20506;-45
2023/07/03 09:38:15;;;;;;;8.77;4.20;;;;;;;;;;5050928;28;20961;-45
2023/07/03 09:40:43;;;;;;;17.83;4.90;;;;;;;;;;5043229;28;20487;-48
2023/07/03 09:43:19;;;;;;;8.30;3.80;;;;;;;;;;5051095;28;20424;-45
2023/07/03 09:45:45;;;;;;;15.63;3.87;;;;;;;;;;5050569;28;20451;-45
2023/07/03 09:48:16;;;;;;;13.40;4.20;;;;;;;;;;5050626;28;20530;-46
2023/07/03 09:50:43;;;;;;;8.93;3.57;;;;;;;;;;5044181;28;20781;-46
2023/07/03 09:53:14;;;;;;;18.40;4.73;;;;;;;;;;5049963;28;20474;-45
2023/07/03 09:55:40;;;;;;;11.87;4.13;;;;;;;;;;5043078;28;20412;-48
2023/07/03 09:58:11;;;;;;;10.37;3.63;;;;;;;;;;5050966;28;20519;-49
2023/07/03 10:00:42;;;;;;;11.20;4.47;;;;;;;;;;5050506;28;20827;-50
2023/07/03 10:03:08;;;;;;;10.40;4.50;;;;;;;;;;5050970;28;20912;-45
2023/07/03 10:05:34;;;;;;;8.27;3.50;;;;;;;;;;5049592;28;20423;-45
2023/07/03 10:08:01;;;;;;;5.60;3.17;;;;;;;;;;5050904;28;20546;-45
2023/07/03 10:10:28;;;;;;;7.43;3.70;;;;;;;;;;5053243;28;20470;-45
2023/07/03 10:13:13;;;;;;;10.83;3.40;;;;;;;;;;5054552;28;20492;-47
2023/07/03 10:15:41;;;;;;;8.30;3.43;;;;;;;;;;5054625;28;20414;-45
2023/07/03 10:18:07;;;;;;;7.00;3.37;;;;;;;;;;5054490;28;20851;-45
2023/07/03 10:20:35;;;;;;;6.77;4.17;;;;;;;;;;5054225;28;20425;-46
2023/07/03 10:23:02;;;;;;;6.97;3.57;;;;;;;;;;5054568;28;20414;-48
2023/07/03 10:25:31;;;;;;;10.57;3.07;;;;;;;;;;5051316;28;20399;-45
2023/07/03 10:27:58;;;;;;;6.90;3.50;;;;;;;;;;5048867;28;20846;-45
2023/07/03 10:30:24;;;;;;;7.53;3.13;;;;;;;;;;5046257;28;20428;-46
2023/07/03 10:32:53;;;;;;;6.37;3.60;;;;;;;;;;5055643;28;20467;-45
2023/07/03 10:35:25;;;;;;;10.47;4.10;;;;;;;;;;5039980;28;20429;-45
2023/07/03 10:37:55;;;;;;;10.33;3.53;;;;;;;;;;5044145;28;20953;-45
2023/07/03 10:40:27;;;;;;;7.90;3.37;;;;;;;;;;5057892;28;20902;-47
2023/07/03 10:42:55;;;;;;;9.83;3.43;;;;;;;;;;5043476;28;20437;-48
2023/07/03 10:45:22;;;;;;;15.73;3.70;;;;;;;;;;5053336;28;20512;-45
2023/07/03 10:47:50;;;;;;;6.17;3.43;;;;;;;;;;5052313;28;20804;-50
2023/07/03 10:50:17;;;;;;;6.90;3.00;;;;;;;;;;5053164;28;20417;-45
2023/07/03 10:52:45;;;;;;;22.60;3.43;;;;;;;;;;5048780;28;20555;-48
2023/07/03 10:55:11;;;;;;;4.90;2.60;;;;;;;;;;5053817;28;20432;-46
2023/07/03 10:57:56;;;;;;;7.57;3.20;;;;;;;;;;5053745;28;20930;-46
2023/07/03 11:00:35;;;;;;;10.93;3.70;;;;;;;;;;5053272;28;20428;-45
2023/07/03 11:03:07;;;;;;;8.00;3.13;;;;;;;;;;5052903;28;20960;-45
2023/07/03 11:05:39;;;;;;;8.00;3.47;;;;;;;;;;5053212;28;20429;-45
2023/07/03 11:08:10;;;;;;;7.73;3.43;;;;;;;;;;5053562;28;20969;-45
2023/07/03 11:10:39;;;;;;;6.90;3.00;;;;;;;;;;5053300;28;20800;-45
2023/07/03 11:13:24;;;;;;;6.20;2.90;;;;;;;;;;5052802;28;20989;-46
2023/07/03 11:15:52;;;;;;;8.23;3.70;;;;;;;;;;5046140;28;20483;-45
2023/07/03 11:18:22;;;;;;;4.37;2.93;;;;;;;;;;5052921;28;20499;-49
2023/07/03 11:21:06;;;;;;;20.50;4.73;;;;;;;;;;5051696;28;20459;-49
2023/07/03 11:23:44;;;;;;;13.57;3.30;;;;;;;;;;5051764;28;20416;-49
2023/07/03 11:26:15;;;;;;;9.47;3.20;;;;;;;;;;5041591;28;20499;-49
2023/07/03 11:28:46;;;;;;;10.57;3.53;;;;;;;;;;5043940;28;20429;-49
2023/07/03 11:31:14;;;;;;;10.30;3.20;;;;;;;;;;5049283;28;20463;-49
2023/07/03 11:33:41;;;;;;;7.57;2.67;;;;;;;;;;5045210;28;20518;-49
2023/07/03 11:36:07;;;;;;;14.37;3.50;;;;;;;;;;5053292;28;20900;-50
2023/07/03 11:38:35;;;;;;;12.87;3.73;;;;;;;;;;5052987;28;20530;-49
2023/07/03 11:41:02;;;;;;;13.73;3.33;;;;;;;;;;5052933;28;20765;-50
2023/07/03 11:43:33;;;;;;;11.20;3.90;;;;;;;;;;5051065;28;20415;-49
2023/07/03 11:45:59;;;;;;;6.50;2.53;;;;;;;;;;5050017;28;20408;-48
2023/07/03 11:48:34;;;;;;;13.77;4.17;;;;;;;;;;5059624;28;20968;-48
2023/07/03 11:51:02;;;;;;;6.67;3.83;;;;;;;;;;5050696;28;20418;-49
2023/07/03 11:53:33;;;;;;;7.80;3.40;;;;;;;;;;5051299;28;20416;-49
2023/07/03 11:55:59;;;;;;;8.47;3.40;;;;;;;;;;5052840;28;20425;-49
2023/07/03 11:58:27;;;;;;;8.33;3.80;;;;;;;;;;5052326;28;20457;-49
2023/07/03 12:01:11;;;;;;;5.70;3.23;;;;;;;;;;5052432;28;20424;-50
2023/07/03 12:03:52;;;;;;;7.73;3.80;;;;;;;;;;5052525;28;20974;-50
2023/07/03 12:06:47;;;;;;;8.50;3.73;;;;;;;;;;5052425;28;20421;-49
2023/07/03 12:09:19;;;;;;;10.83;4.90;;;;;;;;;;5031489;28;20424;-49
2023/07/03 12:12:02;;;;;;;6.97;4.07;;;;;;;;;;5052057;28;20489;-49
2023/07/03 12:15:05;;;;;;;11.47;4.23;;;;;;;;;;5052540;28;20838;-50
2023/07/03 12:17:28;;;;;;;7.40;3.30;;;;;;;;;;5051259;28;20471;-49
2023/07/03 12:19:55;;;;;;;6.23;3.60;;;;;;;;;;5038066;28;20417;-49
2023/07/03 12:22:26;;;;;;;6.93;3.40;;;;;;;;;;5049941;28;20432;-49
2023/07/03 12:25:06;;;;;;;6.87;3.87;;;;;;;;;;5052192;28;20416;-49
2023/07/03 12:27:32;;;;;;;8.90;5.13;;;;;;;;;;5052207;28;20431;-48
2023/07/03 12:29:58;;;;;;;10.30;3.40;;;;;;;;;;5051659;28;20413;-49
2023/07/03 12:32:28;;;;;;;10.63;3.97;;;;;;;;;;5051789;28;20471;-49
2023/07/03 12:34:54;;;;;;;11.97;4.20;;;;;;;;;;5052044;28;20417;-49
2023/07/03 12:37:24;;;;;;;11.90;4.30;;;;;;;;;;5051926;28;20413;-49
2023/07/03 12:39:50;;;;;;;9.17;4.30;;;;;;;;;;5052305;28;20429;-50
2023/07/03 12:42:24;;;;;;;9.80;4.20;;;;;;;;;;5052075;28;20429;-50
2023/07/03 12:44:50;;;;;;;7.27;3.80;;;;;;;;;;5052270;28;20781;-49
2023/07/03 12:47:17;;;;;;;9.83;4.40;;;;;;;;;;5051824;28;20797;-49
2023/07/03 12:49:58;;;;;;;8.47;4.10;;;;;;;;;;5051514;28;20408;-49
2023/07/03 12:52:26;;;;;;;11.03;4.10;;;;;;;;;;5051760;28;20552;-48
2023/07/03 12:54:53;;;;;;;14.67;4.13;;;;;;;;;;5051646;28;20418;-49
2023/07/03 12:57:20;;;;;;;12.33;4.43;;;;;;;;;;5051660;28;20425;-50
2023/07/03 12:59:48;;;;;;;7.43;3.97;;;;;;;;;;5051534;28;20401;-49
2023/07/03 13:02:19;;;;;;;8.40;4.33;;;;;;;;;;5051794;28;20833;-50
2023/07/03 13:04:45;;;;;;;8.93;4.10;;;;;;;;;;5051720;28;20424;-49
2023/07/03 13:07:12;;;;;;;7.63;3.93;;;;;;;;;;5051408;28;20492;-49
2023/07/03 13:09:42;;;;;;;8.13;3.70;;;;;;;;;;5051148;28;20928;-50
2023/07/03 13:12:18;;;;;;;5.37;3.97;;;;;;;;;;5051459;28;20839;-49
2023/07/03 13:14:58;;;;;;;9.00;6.00;;;;;;;;;;5051551;28;20419;-50
2023/07/03 13:17:28;;;;;;;10.90;4.37;;;;;;;;;;5051379;28;20519;-49
2023/07/03 13:19:54;;;;;;;8.73;4.50;;;;;;;;;;5051102;28;20417;-48
2023/07/03 13:22:20;;;;;;;11.03;4.33;;;;;;;;;;5051533;28;20417;-50
2023/07/03 13:24:49;;;;;;;13.03;4.10;;;;;;;;;;5051333;28;20431;-49
2023/07/03 13:27:22;;;;;;;9.30;4.37;;;;;;;;;;5051326;28;20419;-48
2023/07/03 13:29:57;;;;;;;7.50;3.20;;;;;;;;;;5051230;28;20428;-49
2023/07/03 13:32:23;;;;;;;10.30;4.00;;;;;;;;;;5051215;28;20519;-48
2023/07/03 13:34:52;;;;;;;8.23;3.90;;;;;;;;;;5051327;28;20506;-49
2023/07/03 13:37:22;;;;;;;9.27;3.93;;;;;;;;;;5051194;28;21000;-49
2023/07/03 13:39:49;;;;;;;5.97;4.00;;;;;;;;;;5051694;28;20735;-48
2023/07/03 13:42:15;;;;;;;11.87;4.27;;;;;;;;;;5051278;28;20417;-50
2023/07/03 13:44:41;;;;;;;10.37;4.20;;;;;;;;;;5052669;28;20413;-49
2023/07/03 13:47:08;;;;;;;7.50;4.13;;;;;;;;;;5055037;28;20467;-49
2023/07/03 13:49:34;;;;;;;12.20;4.80;;;;;;;;;;5055078;28;20404;-50
2023/07/03 13:52:01;;;;;;;11.60;4.07;;;;;;;;;;5054813;28;20462;-50
2023/07/03 13:54:26;;;;;;;7.40;3.67;;;;;;;;;;5054991;28;20416;-48
2023/07/03 13:56:52;;;;;;;8.50;3.80;;;;;;;;;;5055366;28;20437;-49
2023/07/03 13:59:18;;;;;;;13.57;4.13;;;;;;;;;;5054812;28;20417;-50
2023/07/03 14:01:44;;;;;;;14.63;3.90;;;;;;;;;;5054632;28;20437;-49
2023/07/03 14:04:11;;;;;;;9.80;3.90;;;;;;;;;;5054787;28;20766;-50
2023/07/03 14:06:37;;;;;;;8.37;3.87;;;;;;;;;;5046415;28;20907;-50
2023/07/03 14:09:05;;;;;;;9.33;3.57;;;;;;;;;;5054734;28;20409;-50
2023/07/03 14:11:31;;;;;;;12.20;3.93;;;;;;;;;;5054292;28;21053;-50
2023/07/03 14:13:57;;;;;;;9.90;3.60;;;;;;;;;;5054701;28;20815;-49
2023/07/03 14:16:23;;;;;;;10.13;3.67;;;;;;;;;;5054380;28;20447;-49
2023/07/03 14:18:49;;;;;;;11.77;3.83;;;;;;;;;;5054782;28;20785;-50
2023/07/03 14:21:17;;;;;;;9.47;3.47;;;;;;;;;;5054270;28;20408;-49
2023/07/03 14:23:44;;;;;;;6.63;3.27;;;;;;;;;;5054535;28;20784;-50
2023/07/03 14:26:11;;;;;;;15.07;4.37;;;;;;;;;;5054543;28;20409;-49
2023/07/03 14:28:39;;;;;;;5.20;2.90;;;;;;;;;;5054789;28;20428;-51
2023/07/03 14:31:05;;;;;;;9.57;3.50;;;;;;;;;;5054113;28;20404;-50
2023/07/03 14:33:31;;;;;;;7.97;3.93;;;;;;;;;;5054282;28;20417;-51
2023/07/03 14:35:57;;;;;;;7.73;4.00;;;;;;;;;;5054342;28;20417;-52
2023/07/03 14:38:24;;;;;;;8.33;3.20;;;;;;;;;;5054423;28;20953;-50